createdAt,value
2023-05-18T14:12:19.350Z,85.50
2023-05-18T14:14:51.388Z,85.90
2023-05-18T14:17:23.541Z,86.90
2023-05-18T14:19:56.151Z,86.80
2023-05-18T14:22:28.104Z,85.00
2023-05-18T14:25:01.072Z,86.40
2023-05-18T14:27:34.518Z,86.60
2023-05-18T14:30:07.245Z,87.60
2023-05-18T14:32:39.155Z,88.20
2023-05-18T14:35:11.237Z,88.40
2023-05-18T14:37:44.115Z,86.70
2023-05-18T14:40:16.109Z,87.20
2023-05-18T14:42:48.119Z,85.30
2023-05-18T14:45:20.915Z,84.50
2023-05-18T14:47:52.856Z,84.50
2023-05-18T14:50:24.937Z,84.70
2023-05-18T14:52:56.860Z,84.50
2023-05-18T14:55:28.866Z,85.40
2023-05-18T14:58:02.433Z,85.10
2023-05-18T15:00:34.375Z,84.50
2023-05-18T15:03:06.532Z,83.70
2023-05-18T15:05:38.780Z,83.00
2023-05-18T15:08:10.808Z,83.20
2023-05-18T15:10:42.794Z,81.50
2023-05-18T15:13:15.802Z,82.90
2023-05-18T15:15:48.562Z,83.30
2023-05-18T15:18:20.824Z,84.00
2023-05-18T15:20:52.737Z,84.10
2023-05-18T15:23:26.324Z,84.20
2023-05-18T15:25:58.435Z,84.10
2023-05-18T15:28:30.377Z,84.90
2023-05-18T15:31:02.362Z,86.00
2023-05-18T15:33:36.146Z,85.40
2023-05-18T15:36:08.836Z,85.20
2023-05-18T15:38:41.169Z,85.90
2023-05-18T15:41:13.180Z,86.30
2023-05-18T15:43:46.722Z,86.50
2023-05-18T15:46:18.755Z,86.80
2023-05-18T15:48:51.011Z,86.90
2023-05-18T15:51:24.041Z,88.20
2023-05-18T15:53:56.045Z,88.50
2023-05-18T15:56:29.469Z,88.10
2023-05-18T15:59:01.499Z,89.00
2023-05-18T16:01:33.460Z,88.70
2023-05-18T16:04:05.507Z,89.00
2023-05-18T16:06:37.611Z,90.30
2023-05-18T16:09:09.707Z,88.50
2023-05-18T16:11:41.616Z,89.60
2023-05-18T16:14:13.528Z,89.30
2023-05-18T16:16:45.787Z,89.60
2023-05-18T16:19:18.234Z,90.10
2023-05-18T16:21:50.295Z,90.10
2023-05-18T16:24:22.298Z,89.80
2023-05-18T16:26:54.317Z,90.00
2023-05-18T16:29:26.348Z,89.60
2023-05-18T16:31:58.415Z,90.20
2023-05-18T16:34:31.981Z,90.20
2023-05-18T16:37:04.010Z,90.60
2023-05-18T16:39:35.926Z,90.50
2023-05-18T16:42:09.482Z,90.40
2023-05-18T16:44:41.410Z,90.80
2023-05-18T16:47:13.867Z,90.40
2023-05-18T16:49:47.188Z,90.60
2023-05-18T16:52:21.562Z,90.70
2023-05-18T16:54:53.582Z,90.50
2023-05-18T16:57:27.661Z,90.60
2023-05-18T17:00:01.180Z,91.00
2023-05-18T17:02:34.176Z,90.50
2023-05-18T17:05:08.612Z,90.70
2023-05-18T17:07:40.637Z,91.10
2023-05-18T17:10:12.848Z,90.90
2023-05-18T17:12:45.869Z,91.00
2023-05-18T17:15:18.114Z,91.20
2023-05-18T17:17:50.086Z,90.70
2023-05-18T17:20:22.420Z,91.10
2023-05-18T17:22:54.425Z,91.00
2023-05-18T17:25:26.350Z,91.70
2023-05-18T17:27:58.817Z,91.30
2023-05-18T17:30:31.093Z,91.50
2023-05-18T17:33:03.203Z,91.50
2023-05-18T17:35:35.398Z,92.00
2023-05-18T17:38:07.372Z,91.60
2023-05-18T17:40:39.303Z,91.90
2023-05-18T17:43:13.754Z,92.00
2023-05-18T17:45:45.928Z,91.90
2023-05-18T17:48:17.891Z,92.30
2023-05-18T17:50:53.099Z,92.30
2023-05-18T17:53:25.050Z,92.30
2023-05-18T17:55:57.207Z,92.60
2023-05-18T17:58:29.141Z,92.70
2023-05-18T18:01:01.160Z,92.70
2023-05-18T18:03:36.687Z,93.00
2023-05-18T18:06:08.847Z,93.00
2023-05-18T18:08:40.733Z,92.80
2023-05-18T18:11:12.627Z,93.10
2023-05-18T18:13:44.590Z,92.70
2023-05-18T18:16:17.347Z,93.00
2023-05-18T18:18:49.592Z,93.30
2023-05-18T18:21:21.527Z,94.60
2023-05-18T18:23:53.435Z,95.40
2023-05-18T18:26:25.991Z,95.30
2023-05-18T18:28:58.059Z,95.60
2023-05-18T18:31:30.036Z,95.60
2023-05-18T18:34:02.050Z,96.30
2023-05-18T18:36:34.063Z,96.20
2023-05-18T18:39:06.360Z,96.50
2023-05-18T18:41:38.362Z,96.70
2023-05-18T18:44:10.357Z,96.60
2023-05-18T18:46:42.322Z,96.80
2023-05-18T18:49:14.724Z,97.00
2023-05-18T18:51:48.239Z,96.90
2023-05-18T18:54:20.344Z,97.10
2023-05-18T18:56:53.087Z,97.30
2023-05-18T18:59:24.984Z,97.60
2023-05-18T19:01:56.965Z,97.70
2023-05-18T19:04:29.076Z,97.60
2023-05-18T19:07:03.267Z,97.80
2023-05-18T19:09:36.228Z,98.00
2023-05-18T19:12:08.765Z,98.10
2023-05-18T19:14:40.709Z,98.20
2023-05-18T19:17:12.717Z,98.60
2023-05-18T19:19:44.724Z,98.60
2023-05-18T19:22:16.752Z,98.60
2023-05-18T19:24:48.667Z,98.70
2023-05-18T19:27:20.708Z,99.10
2023-05-18T19:29:52.646Z,99.30
2023-05-18T19:32:24.714Z,99.40
2023-05-18T19:34:56.674Z,99.80
2023-05-18T19:37:28.638Z,99.90
2023-05-18T19:40:00.594Z,99.90
2023-05-18T19:42:32.977Z,99.90
2023-05-18T19:45:05.644Z,99.90
2023-05-18T19:47:37.680Z,99.90
2023-05-18T19:50:10.464Z,99.90
2023-05-18T19:52:42.963Z,99.90
2023-05-18T19:55:14.913Z,99.90
2023-05-18T19:57:46.932Z,99.90
2023-05-18T20:00:20.364Z,99.90
2023-05-18T20:02:52.333Z,99.90
2023-05-18T20:05:25.553Z,99.90
2023-05-18T20:07:58.284Z,99.90
2023-05-18T20:10:30.569Z,99.90
2023-05-18T20:13:02.719Z,99.90
2023-05-18T20:15:37.059Z,99.90
2023-05-18T20:18:09.286Z,99.90
2023-05-18T20:20:41.525Z,99.90
2023-05-18T20:23:13.440Z,99.90
2023-05-18T20:25:48.074Z,99.90
2023-05-18T20:28:19.976Z,99.90
2023-05-18T20:30:52.271Z,99.90
2023-05-18T20:33:24.202Z,99.90
2023-05-18T20:35:57.445Z,99.90
2023-05-18T20:38:29.599Z,99.90
2023-05-18T20:41:01.757Z,99.90
2023-05-18T20:43:35.435Z,99.90
2023-05-18T20:46:08.168Z,99.90
2023-05-18T20:48:42.918Z,99.90
2023-05-18T20:51:19.259Z,99.90
2023-05-18T20:53:52.416Z,99.90
2023-05-18T20:56:26.626Z,99.90
2023-05-18T20:58:59.544Z,99.90
2023-05-18T21:01:32.268Z,99.90
2023-05-18T21:04:05.853Z,99.90
2023-05-18T21:06:40.594Z,99.90
2023-05-18T21:09:13.067Z,99.90
2023-05-18T21:11:45.203Z,99.90
2023-05-18T21:14:17.132Z,99.90
2023-05-18T21:16:49.589Z,99.90
2023-05-18T21:19:21.521Z,99.90
2023-05-18T21:21:53.669Z,99.90
2023-05-18T21:24:25.594Z,99.90
2023-05-18T21:26:57.554Z,99.90
2023-05-18T21:29:29.546Z,99.90
2023-05-18T21:32:03.278Z,99.90
2023-05-18T21:34:35.418Z,99.90
2023-05-18T21:37:08.156Z,99.90
2023-05-18T21:39:42.158Z,99.90
2023-05-18T21:42:14.328Z,99.90
2023-05-18T21:44:46.288Z,99.90
2023-05-18T21:47:18.651Z,99.90
2023-05-18T21:49:50.755Z,99.90
2023-05-18T21:52:22.696Z,99.90
2023-05-18T21:54:54.598Z,99.90
2023-05-18T21:57:26.727Z,99.90
2023-05-18T21:59:58.652Z,99.90
2023-05-18T22:02:30.676Z,99.90
2023-05-18T22:05:02.719Z,99.90
2023-05-18T22:07:34.919Z,99.90
2023-05-18T22:10:07.164Z,99.90
2023-05-18T22:12:41.174Z,99.90
2023-05-18T22:15:13.735Z,99.90
2023-05-18T22:17:46.278Z,99.90
2023-05-18T22:20:18.408Z,99.90
2023-05-18T22:22:50.372Z,99.90
2023-05-18T22:25:22.377Z,99.90
2023-05-18T22:27:54.660Z,99.90
2023-05-18T22:30:28.732Z,99.90
2023-05-18T22:33:00.771Z,99.90
2023-05-18T22:35:32.797Z,99.90
2023-05-18T22:38:05.136Z,99.90
2023-05-18T22:40:37.059Z,99.90
2023-05-18T22:43:09.026Z,99.90
2023-05-18T22:45:41.118Z,99.90
2023-05-18T22:48:13.172Z,99.90
2023-05-18T22:50:45.856Z,99.90
2023-05-18T22:53:18.132Z,99.90
2023-05-18T22:55:50.066Z,99.90
2023-05-18T22:58:22.175Z,99.90
2023-05-18T23:00:54.361Z,99.90
2023-05-18T23:03:26.318Z,99.90
2023-05-18T23:06:02.987Z,99.90
2023-05-18T23:08:43.712Z,99.90
2023-05-18T23:11:18.408Z,99.90
2023-05-18T23:13:51.445Z,99.90
2023-05-18T23:16:24.164Z,99.90
2023-05-18T23:18:58.717Z,99.90
2023-05-18T23:21:31.415Z,99.90
2023-05-18T23:24:04.615Z,99.90
2023-05-18T23:26:36.601Z,99.90
2023-05-18T23:29:09.237Z,99.90
2023-05-18T23:31:41.219Z,99.90
2023-05-18T23:34:13.395Z,99.90
2023-05-18T23:36:45.595Z,99.90
2023-05-18T23:39:17.546Z,99.90
2023-05-18T23:41:54.252Z,99.90
2023-05-18T23:44:27.118Z,99.90
2023-05-18T23:46:59.589Z,99.90
2023-05-18T23:49:31.860Z,99.90
2023-05-18T23:52:04.147Z,99.90
2023-05-18T23:54:37.721Z,99.90
2023-05-18T23:57:10.229Z,99.90
2023-05-18T23:59:42.914Z,99.90
